Список аэропортов
Фактическая погода:

19 августа, 04:30
Температура: +16°C (+14.8*)
Ветер: юго-восточный 6 м/с
Давление: *766 мм
облачно
150 м
Время (МСК)Темп. СВетерВлажностьДавлениеОблачностьОсадки
03:00+17СВ, 3 м/с98%1022 гПаоблачно
04:00+17СВ, 3 м/с99%1023 гПаоблачно
05:00+17СВ, 3 м/с98%1023 гПаоблачно
06:00+17СВ, 3 м/с98%1023 гПаоблачно
07:00+18СВ, 3 м/с96%1023 гПаоблачно
08:00+19В, 3 м/с88%1023 гПаоблачно
09:00+22В, 3 м/с77%1022 гПаоблачно
10:00+24В, 3 м/с69%1022 гПаоблачно
11:00+25В, 3 м/с67%1022 гПаоблачно
12:00+25В, 3 м/с69%1022 гПаоблачно
13:00+25В, 3 м/с71%1022 гПаоблачносл. дождь
14:00+26В, 3 м/с72%1022 гПаоблачнодождь
15:00+23В, 2 м/с93%1022 гПаоблачно
16:00+23В, 2 м/с93%1022 гПаоблачно
17:00+22В, 2 м/с94%1022 гПаоблачносл. дождь
18:00+22В, 1 м/с97%1022 гПаоблачносл. дождь
19:00+21В, 1 м/с99%1022 гПаоблачносл. дождь
20:00+21В, 1 м/с99%1022 гПаоблачносл. дождь
21:00+20В, 1 м/с99%1021 гПаоблачнодождь
22:00+20В, 1 м/с99%1021 гПаоблачно
23:00+20В, 2 м/с99%1021 гПаоблачно
20 августа
00:00+20В, 2 м/с98%1020 гПаоблачносл. дождь
01:00+19В, 1 м/с98%1021 гПаоблачнодождь
02:00+19СВ, 2 м/с99%1020 гПаоблачнодождь
03:00+19В, 2 м/с99%1020 гПаоблачнодождь
04:00+18В, 3 м/с98%1019 гПаоблачносл. дождь
05:00+18В, 2 м/с98%1019 гПаоблачносл. дождь
06:00+19В, 3 м/с98%1018 гПаоблачно
07:00+20В, 3 м/с96%1018 гПаоблачно
08:00+21В, 3 м/с93%1018 гПамалооблачно
09:00+23ЮВ, 2 м/с82%1017 гПас прояснениямидождь
10:00+22ЮВ, 2 м/с90%1017 гПаоблачно
11:00+25ЮВ, 2 м/с72%1017 гПаоблачно
12:00+25ЮВ, 2 м/с70%1016 гПаоблачно
13:00+27ЮВ, 2 м/с66%1016 гПас прояснениями
14:00+26Ю, 2 м/с68%1015 гПаоблачнодождь
15:00+24Ю, 2 м/с88%1015 гПаоблачнодождь
16:00+22ЮЗ, 2 м/с96%1015 гПаоблачнодождь
17:00+22ЮЗ, 2 м/с97%1016 гПас прояснениямисл. дождь
18:00+21ЮЗ, 2 м/с98%1016 гПамалооблачно
19:00+20ЮЗ, 1 м/с100%1016 гПамалооблачносл. дождь
20:00+19ЮЗ, 1 м/с100%1016 гПаоблачно
21:00+19ЮЗ, 2 м/с98%1016 гПамалооблачно
22:00+18ЮЗ, 2 м/с99%1016 гПаоблачно
23:00+18З, 2 м/с99%1015 гПаоблачно
21 августа
00:00+18З, 2 м/с99%1015 гПаоблачно
01:00+18З, 2 м/с99%1015 гПаоблачно
02:00+17З, 2 м/с98%1016 гПаоблачно
03:00+17ЮЗ, 2 м/с99%1016 гПаоблачно